Latest Coastal Weather Observations for Cape Otway

IDT60701

Issued at 12:52 am EST Thursday 27 July 2017 (issued every 10 minutes, with the page automatically refreshed every 10 minutes)

About coastal observations | Map of coastal stations | Coastal observations for TAS | Marine services | Other Formats
Station Details ID: 090015 Name: CAPE OTWAY LIGHTHOUSE Lat: -38.86 Lon: 143.51 Height: 82.0 m
Data from the previous 72 hours. | See also: Recent months at Cape Otway
Date/Time
EST
Temp
°C
Wind Pressure Rain since
9am
mm
Weather Cloud Vis
km
Sea
Height
m
Swell
Dir  Spd
kts
Gust
kts
hPa Trend Height
m
Period
s
Dir
27/12:30am 7.9 N 9 11 1022.6 - 1.4 - - - - - - -
27/12:00am 8.0 N 9 11 1022.8 - 1.4 - - - - - - -
 
Date/Time
EST
Temp
°C
Wind Pressure Rain since
9am
mm
Weather Cloud Vis
km
Sea
Height
m
Swell
Dir  Spd
kts
Gust
kts
hPa Trend Height
m
Period
s
Dir
26/11:30pm 8.2 NNW 9 11 1022.9 - 1.4 - - - - - - -
26/11:00pm 8.1 N 9 11 1022.8 - 1.4 - - - - - - -
26/10:30pm 9.0 NNW 8 10 1023.0 - 1.4 - - - - - - -
26/10:00pm 8.5 N 7 9 1022.9 - 1.4 - - - - - - -
26/09:30pm 8.8 N 7 9 1022.8 - 1.4 - - - - - - -
26/09:00pm 11.1 W 7 9 1022.5 - 1.4 - - - - - - -
26/08:30pm 10.8 W 7 10 1022.6 - 1.4 - - - - - - -
26/08:00pm 10.7 SW 8 12 1022.5 - 1.4 - - - - - - -
26/07:30pm 11.0 SW 9 15 1022.2 - 1.4 - - - - - - -
26/07:00pm 10.9 WSW 11 15 1022.0 - 1.4 - - - - - - -
26/06:30pm 11.2 WSW 11 18 1021.9 - 1.4 - - - - - - -
26/06:00pm 11.2 WSW 13 19 1021.6 - 1.4 - - - - - - -
26/05:30pm 11.2 WSW 11 17 1021.4 - 1.4 - - - - - - -
26/05:00pm 11.3 WSW 12 17 1020.9 - 1.4 - - - - - - -
26/04:30pm 11.9 WSW 14 19 1020.8 - 1.4 - - - - - - -
26/04:00pm 11.4 WSW 16 22 1020.5 - 1.4 - - - - - - -
26/03:30pm 11.5 WSW 16 23 1020.3 - 1.4 - - - - - - -
26/03:00pm 11.5 WSW 13 21 1020.1 - 1.4 Recent precip. - - - - - -
26/02:34pm 11.5 SW 17 27 1019.9 - 1.4 - - - - - - -
26/02:30pm 11.1 SW 19 27 1019.8 - 1.4 - - - - - - -
26/02:12pm 11.9 WSW 15 25 1019.7 - 0.8 - - - - - - -
26/02:00pm 11.5 WSW 15 20 1019.6 - 0.8 - - - - - - -
26/01:30pm 12.1 WSW 16 22 1019.2 - 0.8 - - - - - - -
26/01:00pm 11.8 WSW 16 22 1019.0 - 0.8 - - - - - - -
26/12:42pm 11.6 WSW 16 26 1019.0 - 0.8 - - - - - - -
26/12:30pm 12.7 WSW 18 26 1018.9 - 0.6 - - - - - - -
26/12:00pm 12.4 WSW 16 23 1018.9 - 0.6 Recent precip. - - - - - -
26/11:30am 10.7 SW 15 22 1018.9 - 0.6 - - - - - - -
26/11:15am 11.9 SW 17 31 1018.5 - 0.2 - - - - - - -
26/11:00am 12.4 SW 15 20 1018.5 - 0.2 - - - - - - -
26/10:30am 11.1 SSW 20 27 1018.2 - 0.2 - - - - - - -
26/10:00am 11.4 SW 23 30 1017.5 - 0.2 - - - - - - -
26/09:54am 11.6 SW 23 30 1017.4 - 0.2 - - - - - - -
26/09:32am 12.3 WSW 19 29 1016.8 - 0.0 - - - - - - -
26/09:30am 12.1 WSW 20 29 1016.8 - 0.0 - - - - - - -
26/09:05am 12.0 WSW 21 31 1016.2 - 0.0 - - - - - - -
26/09:00am 11.8 WSW 22 29 1016.1 - 5.0 - - - - - - -
26/08:37am 11.7 WSW 21 31 1015.6 - 5.0 - - - - - - -
26/08:30am 11.7 WSW 21 29 1015.5 - 5.0 - - - - - - -
26/08:00am 11.5 WSW 22 33 1014.9 - 5.0 - - - - - - -
26/07:30am 11.9 WSW 22 32 1014.3 - 5.0 - - - - - - -
26/07:02am 11.9 WSW 23 33 1013.7 - 5.0 - - - - - - -
26/07:00am 11.7 WSW 24 33 1013.6 - 5.0 - - - - - - -
26/06:30am 11.2 WSW 23 34 1012.8 - 5.0 - - - - - - -
26/06:00am 11.4 W 26 36 1012.0 - 5.0 Recent precip. - - - - - -
26/05:30am 12.0 W 23 35 1011.7 - 4.4 - - - - - - -
26/05:11am 12.2 W 25 35 1011.5 - 4.4 - - - - - - -
26/05:00am 12.1 W 26 34 1011.5 - 4.4 - - - - - - -
26/04:39am 12.4 W 25 35 1011.0 - 4.4 - - - - - - -
26/04:30am 12.2 W 26 34 1011.0 - 4.4 - - - - - - -
26/04:01am 12.2 W 25 35 1010.9 - 4.4 - - - - - - -
26/04:00am 12.4 W 26 35 1010.9 - 4.4 - - - - - - -
26/03:33am 12.3 W 25 35 1010.8 - 4.4 - - - - - - -
26/03:30am 12.3 W 26 35 1010.8 - 4.4 - - - - - - -
26/03:03am 12.3 W 25 35 1010.8 - 4.4 - - - - - - -
26/03:00am 12.3 W 25 33 1010.8 - 4.4 - - - - - - -
26/02:35am 12.3 W 25 35 1010.5 - 4.4 - - - - - - -
26/02:30am 12.2 W 27 36 1010.4 - 4.4 - - - - - - -
26/02:00am 11.9 W 21 33 1010.4 - 4.4 - - - - - - -
26/01:30am 11.7 W 26 36 1010.3 - 4.4 - - - - - - -
26/01:00am 10.8 WNW 21 32 1010.4 - 4.4 - - - - - - -
26/12:30am 11.0 WNW 21 35 1010.2 - 3.8 - - - - - - -
26/12:00am 11.0 NW 19 30 1009.9 - 3.4 Recent precip. - - - - - -
 
Date/Time
EST
Temp
°C
Wind Pressure Rain since
9am
mm
Weather Cloud Vis
km
Sea
Height
m
Swell
Dir  Spd
kts
Gust
kts
hPa Trend Height
m
Period
s
Dir
25/11:30pm 10.8 NW 19 30 1010.2 - 3.2 - - - - - - -
25/11:10pm 10.8 WNW 19 29 1010.3 - 3.0 - - - - - - -
25/11:00pm 10.9 NW 18 27 1010.1 - 2.4 - - - - - - -
25/10:36pm 11.3 NW 18 33 1010.0 - 1.8 - - - - - - -
25/10:30pm 11.5 NW 19 27 1010.0 - 1.8 - - - - - - -
25/10:00pm 11.0 NW 17 28 1010.1 - 1.8 - - - - - - -
25/09:30pm 10.9 NW 16 27 1010.3 - 1.8 - - - - - - -
25/09:00pm 11.2 NW 15 25 1010.0 - 1.4 - - - - - - -
25/08:30pm 11.4 NW 18 29 1009.9 - 1.4 - - - - - - -
25/08:01pm 11.1 NW 15 25 1010.3 - 1.4 - - - - - - -
25/08:00pm 11.1 NW 14 25 1010.3 - 1.4 - - - - - - -
25/07:30pm 11.6 WNW 17 27 1010.6 - 1.2 - - - - - - -
25/07:06pm 11.8 NW 15 25 1010.6 - 0.2 - - - - - - -
25/07:00pm 11.9 NW 13 25 1010.3 - 0.2 - - - - - - -
25/06:30pm 12.5 NW 15 25 1010.3 - 0.0 - - - - - - -
25/06:26pm 12.6 NW 15 25 1010.3 - 0.0 - - - - - - -
25/06:00pm 12.9 WNW 14 22 1010.1 - 0.0 - - - - - - -
25/05:30pm 12.7 W 16 24 1010.1 - 0.0 - - - - - - -
25/05:18pm 12.6 W 17 29 1010.0 - 0.0 - - - - - - -
25/05:00pm 13.9 WNW 18 26 1010.1 - 0.0 - - - - - - -
25/04:50pm 14.0 WNW 18 28 1010.1 - 0.0 - - - - - - -
25/04:30pm 14.0 WNW 18 27 1010.2 - 0.0 - - - - - - -
25/04:00pm 14.1 WNW 19 27 1010.0 - 0.0 - - - - - - -
25/03:30pm 14.5 WNW 20 28 1010.1 - 0.0 - - - - - - -
25/03:00pm 14.3 WNW 18 26 1010.1 - 0.0 - - - - - - -
25/02:30pm 14.3 WNW 19 26 1010.1 - 0.0 - - - - - - -
25/02:00pm 14.5 WNW 18 25 1010.3 - 0.0 - - - - - - -
25/01:30pm 14.5 WNW 14 22 1010.6 - 0.0 - - - - - - -
25/01:00pm 14.2 WNW 13 20 1011.0 - 0.0 - - - - - - -
25/12:30pm 14.6 WNW 13 20 1011.4 - 0.0 - - - - - - -
25/12:00pm 15.2 NW 15 24 1011.7 - 0.0 - - - - - - -
25/11:30am 15.7 NW 13 26 1012.2 - 0.0 - - - - - - -
25/11:00am 15.0 NW 15 23 1012.6 - 0.0 - - - - - - -
25/10:30am 15.5 NW 15 23 1012.5 - 0.0 - - - - - - -
25/10:02am 15.5 NW 15 25 1012.4 - 0.0 - - - - - - -
25/10:00am 15.5 NW 16 25 1012.4 - 0.0 - - - - - - -
25/09:30am 15.4 NW 19 32 1012.3 - 0.0 - - - - - - -
25/09:00am 15.1 NNW 18 31 1012.3 - 1.0 - - - - - - -
25/08:30am 15.3 NNW 22 35 1012.4 - 1.0 - - - - - - -
25/08:02am 14.8 NNW 22 36 1012.2 - 1.0 - - - - - - -
25/08:00am 14.6 NNW 22 31 1012.2 - 1.0 - - - - - - -
25/07:30am 13.6 NNW 19 30 1012.1 - 1.0 - - - - - - -
25/07:00am 14.4 NNW 21 34 1012.0 - 1.0 - - - - - - -
25/06:30am 14.0 NNW 19 30 1012.1 - 1.0 - - - - - - -
25/06:00am 13.4 NNW 19 29 1012.3 - 1.0 - - - - - - -
25/05:30am 13.0 NNW 18 30 1012.4 - 1.0 - - - - - - -
25/05:00am 13.5 NNW 19 30 1012.8 - 1.0 - - - - - - -
25/04:30am 13.0 NNW 19 30 1012.9 - 1.0 - - - - - - -
25/04:00am 12.9 NNW 18 30 1013.1 - 1.0 - - - - - - -
25/03:30am 12.5 NNW 17 28 1013.3 - 1.0 - - - - - - -
25/03:10am 12.2 NNW 16 26 1013.4 - 1.0 - - - - - - -
25/03:00am 12.1 NNW 15 23 1013.8 - 1.0 - - - - - - -
25/02:30am 11.7 NNW 15 23 1014.1 - 1.0 - - - - - - -
25/02:00am 11.3 NNW 14 21 1014.3 - 1.0 - - - - - - -
25/01:30am 11.4 NNW 15 22 1014.8 - 1.0 - - - - - - -
25/01:01am 11.6 NNW 15 26 1015.2 - 1.0 - - - - - - -
25/01:00am 11.6 NNW 14 26 1015.2 - 1.0 - - - - - - -
25/12:30am 11.2 NNW 12 18 1015.8 - 1.0 - - - - - - -
25/12:00am 10.8 NNW 11 19 1016.2 - 1.0 - - - - - - -
 
Date/Time
EST
Temp
°C
Wind Pressure Rain since
9am
mm
Weather Cloud Vis
km
Sea
Height
m
Swell
Dir  Spd
kts
Gust
kts
hPa Trend Height
m
Period
s
Dir
24/11:30pm 10.8 NNW 11 15 1016.4 - 1.0 - - - - - - -
24/11:00pm 10.1 NNW 10 14 1016.5 - 1.0 - - - - - - -
24/10:30pm 10.3 NNW 11 14 1016.9 - 1.0 - - - - - - -
24/10:00pm 10.6 NNW 11 15 1017.2 - 1.0 - - - - - - -
24/09:30pm 10.7 NNW 11 18 1017.2 - 1.0 - - - - - - -
24/09:00pm 10.5 NNW 9 13 1017.3 - 1.0 - - - - - - -
24/08:30pm 10.2 NW 9 12 1017.3 - 1.0 - - - - - - -
24/08:00pm 9.8 NNW 7 8 1017.4 - 1.0 - - - - - - -
24/07:30pm 10.3 NW 7 9 1017.5 - 1.0 - - - - - - -
24/07:00pm 10.6 NW 7 9 1017.4 - 1.0 - - - - - - -
24/06:30pm 11.5 WNW 9 11 1017.4 - 1.0 - - - - - - -
24/06:00pm 11.3 NW 8 13 1017.1 - 0.8 - - - - - - -
24/05:30pm 11.8 WNW 11 16 1017.1 - 0.8 - - - - - - -
24/05:00pm 12.0 WNW 11 15 1017.1 - 0.8 - - - - - - -
24/04:30pm 12.3 WNW 14 21 1017.0 - 0.8 - - - - - - -
24/04:00pm 12.3 WNW 13 19 1016.9 - 0.8 - - - - - - -
24/03:30pm 11.6 W 11 16 1017.0 - 0.8 - - - - - - -
24/03:00pm 10.8 W 15 22 1017.2 - 0.8 Rain - - - - - -
24/02:30pm 11.3 W 12 20 1017.1 - 0.2 - - - - - - -
24/02:00pm 11.9 W 12 18 1017.2 - 0.0 - - - - - - -
24/01:30pm 12.2 WNW 11 17 1017.6 - 0.0 - - - - - - -
24/01:00pm 12.0 WNW 13 18 1017.8 - 0.0 - - - - - - -
24/12:30pm 12.5 NW 10 14 1018.0 - 0.0 - - - - - - -
24/12:00pm 11.7 NW 10 15 1018.4 - 0.0 - - - - - - -
24/11:30am 10.8 NW 10 16 1018.6 - 0.0 - - - - - - -
24/11:00am 11.2 NW 11 16 1019.0 - 0.0 - - - - - - -
24/10:30am 10.7 NW 9 14 1018.8 - 0.0 - - - - - - -
24/10:00am 10.5 NW 9 13 1018.8 - 0.0 - - - - - - -
24/09:30am 10.3 NW 8 12 1018.8 - 0.0 - - - - - - -
24/09:00am 9.3 NNW 11 14 1018.4 - 3.4 - - - - - - -
24/08:30am 8.8 NNW 10 12 1018.1 - 3.4 - - - - - - -
24/08:00am 8.4 NNW 10 12 1017.8 - 3.4 - - - - - - -
24/07:30am 8.2 NNW 9 12 1017.5 - 3.4 - - - - - - -
24/07:00am 8.5 NNW 11 15 1017.3 - 3.4 - - - - - - -
24/06:30am 8.8 NW 9 12 1017.2 - 3.2 - - - - - - -
24/06:00am 8.6 NNW 8 11 1016.9 - 2.4 Recent precip. - - - - - -
24/05:30am 9.2 NW 9 15 1016.8 - 2.2 - - - - - - -
24/05:00am 9.3 NW 8 9 1016.6 - 2.2 - - - - - - -
24/04:30am 10.4 WNW 10 14 1016.6 - 2.2 - - - - - - -
24/04:00am 10.5 W 11 15 1016.3 - 2.2 - - - - - - -
24/03:30am 10.3 WSW 10 15 1016.3 - 2.2 - - - - - - -
24/03:00am 10.4 WSW 11 15 1016.3 - 2.2 - - - - - - -
24/02:30am 10.9 W 11 16 1016.3 - 2.2 - - - - - - -
24/02:00am 11.0 WSW 11 15 1016.2 - 2.2 - - - - - - -
24/01:30am 10.9 WSW 12 16 1015.8 - 2.2 - - - - - - -
24/01:00am 10.9 WSW 12 19 1015.9 - 2.2 - - - - - - -

Other Formats:

Comma delimited format used in spreadsheet applications
http://www.bom.gov.au/fwo/IDT60701/IDT60701.94842.axf

JavaScript Object Notation format (JSON) in row-major order
http://www.bom.gov.au/fwo/IDT60701/IDT60701.94842.json